Time;durP1;ratioP1;P1;durP2;ratioP2;P2;SDS_P1;SDS_P2;PMS_P1;PMS_P2;Temp;Humidity;BMP_temperature;BMP_pressure;BME280_temperature;BME280_humidity;BME280_pressure;Samples;Min_cycle;Max_cycle;Signal;HPM_P1;HPM_P2
2022/08/20 00:01:26;;;;;;;6.40;1.88;;;;;;;16.57;86.46;100938.16;5039050;28;20035;-70
2022/08/20 00:03:51;;;;;;;9.57;1.70;;;;;;;16.56;86.44;100930.91;5039627;28;20397;-71
2022/08/20 00:06:18;;;;;;;6.18;1.77;;;;;;;16.56;86.50;100925.31;5022677;28;20079;-70
2022/08/20 00:08:44;;;;;;;6.65;1.85;;;;;;;16.57;86.53;100928.94;5006940;28;20505;-70
2022/08/20 00:11:11;;;;;;;6.60;1.50;;;;;;;16.56;86.64;100924.50;5057177;28;20032;-70
2022/08/20 00:13:42;;;;;;;5.10;1.40;;;;;;;16.56;86.77;100930.09;4990218;28;20033;-70
2022/08/20 00:16:09;;;;;;;6.85;1.48;;;;;;;16.56;86.57;100933.72;5039028;28;20044;-71
2022/08/20 00:18:36;;;;;;;7.13;1.67;;;;;;;16.54;86.74;100933.22;5057256;28;20509;-70
2022/08/20 00:21:01;;;;;;;8.60;1.92;;;;;;;16.54;86.77;100931.22;5035763;28;20453;-71
2022/08/20 00:23:27;;;;;;;9.82;1.92;;;;;;;16.54;86.59;100936.84;5035809;28;20083;-70
2022/08/20 00:25:52;;;;;;;7.60;1.75;;;;;;;16.54;86.66;100930.41;5019354;28;20032;-70
2022/08/20 00:28:18;;;;;;;7.30;1.70;;;;;;;16.54;86.63;100939.63;5035747;28;20542;-70
2022/08/20 00:30:44;;;;;;;8.23;1.40;;;;;;;16.54;86.70;100942.44;5002442;28;20064;-70
2022/08/20 00:33:11;;;;;;;6.57;1.80;;;;;;;16.54;86.63;100938.81;5009850;28;20062;-71
2022/08/20 00:35:39;;;;;;;5.80;2.03;;;;;;;16.55;86.97;100940.50;5037122;28;20030;-70
2022/08/20 00:38:05;;;;;;;5.45;1.23;;;;;;;16.56;86.91;100944.94;5019339;28;20033;-71
2022/08/20 00:40:37;;;;;;;6.20;1.75;;;;;;;16.55;87.13;100940.50;5019061;28;20033;-71
2022/08/20 00:43:04;;;;;;;6.07;1.38;;;;;;;16.55;87.16;100940.50;5019014;28;20037;-71
2022/08/20 00:45:31;;;;;;;6.25;1.23;;;;;;;16.56;87.22;100941.31;4986344;28;20029;-71
2022/08/20 00:47:56;;;;;;;5.97;1.33;;;;;;;16.55;87.13;100940.50;5015428;28;20034;-70
2022/08/20 00:50:25;;;;;;;7.28;1.98;;;;;;;16.55;87.30;100934.88;5013284;28;20470;-71
2022/08/20 00:52:51;;;;;;;6.47;1.50;;;;;;;16.54;87.28;100934.03;5019378;28;20061;-71
2022/08/20 00:55:17;;;;;;;7.00;1.60;;;;;;;16.56;87.33;100930.09;5002458;28;20099;-71
2022/08/20 00:57:45;;;;;;;8.32;1.88;;;;;;;16.54;87.38;100922.00;5002465;28;20029;-70
2022/08/20 01:00:17;;;;;;;6.47;1.38;;;;;;;16.55;87.59;100923.66;5016270;28;20036;-70
2022/08/20 01:02:42;;;;;;;4.40;1.10;;;;;;;16.54;87.86;100922.81;5035102;28;20489;-70
2022/08/20 01:05:08;;;;;;;8.57;1.98;;;;;;;16.53;87.86;100921.19;4998299;28;20095;-70
2022/08/20 01:07:34;;;;;;;8.30;1.52;;;;;;;16.53;87.67;100918.38;4991893;28;20033;-71
2022/08/20 01:10:01;;;;;;;6.65;2.03;;;;;;;16.53;87.65;100920.34;5034919;28;20034;-70
2022/08/20 01:12:28;;;;;;;4.15;1.23;;;;;;;16.52;87.56;100924.31;5002867;28;20116;-70
2022/08/20 01:14:53;;;;;;;7.35;1.85;;;;;;;16.50;87.75;100915.41;5035279;28;20359;-70
2022/08/20 01:17:22;;;;;;;6.32;1.35;;;;;;;16.50;87.72;100923.81;5034649;28;20056;-71
2022/08/20 01:20:12;;;;;;;5.20;1.30;;;;;;;16.50;87.78;100926.63;5005877;28;20386;-71
2022/08/20 01:26:05;;;;;;;9.68;1.83;;;;;;;16.48;87.99;100934.50;5029458;28;20022;-71
2022/08/20 01:28:37;;;;;;;9.32;1.95;;;;;;;16.47;87.96;100930.06;5034766;28;20041;-71
2022/08/20 01:31:05;;;;;;;8.23;1.63;;;;;;;16.45;88.47;100930.38;5032345;28;20556;-71
2022/08/20 01:33:30;;;;;;;9.50;1.90;;;;;;;16.44;88.24;100939.13;5000412;28;20052;-71
2022/08/20 01:35:56;;;;;;;9.85;1.70;;;;;;;16.42;88.36;100939.44;5034707;28;20037;-71
2022/08/20 01:38:22;;;;;;;9.88;1.98;;;;;;;16.42;88.54;100941.41;5016193;28;20045;-71
2022/08/20 01:41:20;;;;;;;10.50;1.63;;;;;;;16.40;88.53;100936.13;5018449;28;20112;-70
2022/08/20 01:43:45;;;;;;;7.50;1.60;;;;;;;16.39;88.59;100942.06;4996018;28;20025;-70
2022/08/20 01:46:12;;;;;;;8.13;1.65;;;;;;;16.37;88.28;100938.75;5001499;28;20040;-70
2022/08/20 01:48:38;;;;;;;6.13;1.63;;;;;;;16.36;88.36;100942.72;4985292;28;20461;-71
2022/08/20 01:51:06;;;;;;;8.13;1.77;;;;;;;16.34;88.59;100942.22;4983121;28;20022;-71
2022/08/20 01:53:40;;;;;;;7.75;1.77;;;;;;;16.32;88.58;100948.13;5034827;28;20029;-71
2022/08/20 01:56:09;;;;;;;8.30;1.90;;;;;;;16.30;88.46;100942.03;5038717;28;20033;-71
2022/08/20 01:58:36;;;;;;;6.70;1.80;;;;;;;16.28;88.57;100936.72;4989188;28;20025;-71
2022/08/20 02:01:02;;;;;;;10.88;2.05;;;;;;;16.26;88.59;100936.22;4987120;28;20030;-71
2022/08/20 02:03:29;;;;;;;8.18;1.85;;;;;;;16.25;88.67;100943.00;5022055;28;20027;-71
2022/08/20 02:05:55;;;;;;;6.95;1.38;;;;;;;16.23;88.63;100934.06;5038452;28;20053;-70
2022/08/20 02:08:20;;;;;;;8.27;1.75;;;;;;;16.22;88.41;100937.22;5039831;28;20385;-70
2022/08/20 02:10:46;;;;;;;5.80;1.73;;;;;;;16.21;88.73;100936.34;5038381;28;20029;-71
2022/08/20 02:13:12;;;;;;;6.47;1.50;;;;;;;16.18;88.67;100931.41;4989183;28;20508;-71
2022/08/20 02:15:38;;;;;;;10.40;2.03;;;;;;;16.16;88.86;100933.72;5021657;28;20103;-71
2022/08/20 02:18:09;;;;;;;7.55;1.90;;;;;;;16.15;88.63;100925.63;5021873;28;20498;-71
2022/08/20 02:20:35;;;;;;;8.07;1.70;;;;;;;16.12;88.48;100927.09;5008928;28;20041;-71
2022/08/20 02:23:00;;;;;;;8.00;1.50;;;;;;;16.09;89.08;100922.94;5024891;28;20040;-71
2022/08/20 02:25:28;;;;;;;8.43;1.50;;;;;;;16.07;89.03;100921.63;5008594;28;20029;-71
2022/08/20 02:27:53;;;;;;;8.00;1.67;;;;;;;16.05;88.96;100926.75;5022279;28;20029;-71
2022/08/20 02:30:32;;;;;;;9.32;1.60;;;;;;;15.99;89.04;100926.03;5024551;28;20115;-71
2022/08/20 02:32:58;;;;;;;7.40;1.60;;;;;;;15.98;89.17;100926.34;4997257;28;20043;-70
2022/08/20 02:35:23;;;;;;;8.30;1.90;;;;;;;15.95;88.97;100924.19;5041192;28;20032;-71
2022/08/20 02:37:49;;;;;;;12.23;2.50;;;;;;;15.91;88.93;100925.97;5006011;28;20451;-70
2022/08/20 02:40:16;;;;;;;9.70;1.70;;;;;;;15.86;89.04;100919.38;5024351;28;20032;-70
2022/08/20 02:42:42;;;;;;;7.80;1.70;;;;;;;15.84;88.96;100916.03;5008085;28;20043;-70
2022/08/20 02:45:12;;;;;;;5.93;1.50;;;;;;;15.81;89.38;100915.88;5008630;28;20025;-70
2022/08/20 02:47:38;;;;;;;8.50;1.90;;;;;;;15.78;89.15;100917.34;5024308;28;20431;-70
2022/08/20 02:50:05;;;;;;;8.60;1.77;;;;;;;15.75;89.38;100917.16;5024424;28;20029;-70
2022/08/20 02:52:30;;;;;;;7.38;1.58;;;;;;;15.72;89.35;100917.78;4989904;28;20032;-71
2022/08/20 02:54:56;;;;;;;8.55;1.92;;;;;;;15.68;89.45;100911.97;5007599;28;20078;-70
2022/08/20 02:57:21;;;;;;;6.95;1.88;;;;;;;15.64;89.54;100917.38;4998260;28;20477;-71
2022/08/20 02:59:47;;;;;;;8.88;1.98;;;;;;;15.62;89.41;100919.66;5001158;28;20032;-71
2022/08/20 03:02:13;;;;;;;7.95;2.10;;;;;;;15.59;89.63;100925.06;5007472;28;20044;-71
2022/08/20 03:04:39;;;;;;;8.23;1.92;;;;;;;15.56;89.69;100920.09;4989009;28;20033;-71
2022/08/20 03:07:04;;;;;;;10.82;1.73;;;;;;;15.52;89.63;100919.09;5034003;28;20099;-70
2022/08/20 03:09:30;;;;;;;9.05;1.63;;;;;;;15.49;89.54;100920.56;5054879;28;20063;-71
2022/08/20 03:11:56;;;;;;;9.02;1.92;;;;;;;15.46;89.32;100920.34;5007598;28;20075;-71
2022/08/20 03:14:21;;;;;;;7.50;2.00;;;;;;;15.44;89.48;100922.66;5020222;28;20048;-71
2022/08/20 03:16:46;;;;;;;6.93;1.88;;;;;;;15.37;89.67;100921.09;5021751;28;20033;-71
2022/08/20 03:19:12;;;;;;;11.25;1.70;;;;;;;15.35;89.82;100914.16;5007296;28;21162;-71
2022/08/20 03:21:38;;;;;;;9.75;2.05;;;;;;;15.31;89.55;100922.38;5012073;28;20052;-70
2022/08/20 03:24:03;;;;;;;10.25;1.90;;;;;;;15.29;89.46;100921.03;5017225;28;20030;-70
2022/08/20 03:26:29;;;;;;;7.63;1.88;;;;;;;15.27;89.59;100917.75;5006470;28;20105;-71
2022/08/20 03:28:54;;;;;;;12.68;2.65;;;;;;;15.24;89.66;100918.34;5003989;28;20040;-71
2022/08/20 03:31:20;;;;;;;10.45;2.10;;;;;;;15.20;89.57;100918.16;5015408;28;20037;-71
2022/08/20 03:33:45;;;;;;;7.72;1.65;;;;;;;15.18;89.83;100912.03;5002032;28;20037;-71
2022/08/20 03:36:11;;;;;;;8.68;1.58;;;;;;;15.16;89.46;100909.56;5020109;28;20041;-71
2022/08/20 03:38:36;;;;;;;8.48;1.95;;;;;;;15.14;89.70;100911.03;5037836;28;20060;-71
2022/08/20 03:41:02;;;;;;;6.68;1.70;;;;;;;15.11;89.81;100903.28;5037873;28;20037;-71
2022/08/20 03:43:27;;;;;;;6.55;1.40;;;;;;;15.10;89.42;100898.81;5020047;28;20055;-71
2022/08/20 03:45:53;;;;;;;8.55;1.73;;;;;;;15.07;89.52;100897.50;5019730;28;20434;-70
2022/08/20 03:48:19;;;;;;;7.22;2.13;;;;;;;15.05;89.56;100901.75;5000491;28;20026;-70
2022/08/20 03:50:45;;;;;;;7.85;2.00;;;;;;;15.04;89.83;100898.09;5023236;28;20052;-70
2022/08/20 03:53:11;;;;;;;6.95;1.83;;;;;;;15.03;89.80;100901.22;5041677;28;20072;-70
2022/08/20 03:55:37;;;;;;;6.88;1.88;;;;;;;15.02;89.88;100899.56;5008003;28;20057;-70
2022/08/20 03:58:05;;;;;;;8.68;1.80;;;;;;;15.00;89.96;100899.06;5037099;28;20030;-71
2022/08/20 04:00:43;;;;;;;5.85;1.50;;;;;;;14.96;89.76;100902.50;5019835;28;20025;-70
2022/08/20 04:03:08;;;;;;;8.77;1.50;;;;;;;14.93;89.69;100897.53;5020627;28;20033;-71
2022/08/20 04:05:39;;;;;;;6.90;2.05;;;;;;;14.92;89.50;100895.84;5044476;28;20040;-71
2022/08/20 04:08:05;;;;;;;6.25;1.60;;;;;;;14.90;89.59;100903.72;5036783;28;20033;-70
2022/08/20 04:10:31;;;;;;;5.90;1.75;;;;;;;14.87;89.60;100893.16;5003702;28;20046;-71
2022/08/20 04:12:56;;;;;;;4.68;1.40;;;;;;;14.85;89.80;100898.25;5019658;28;20112;-71
2022/08/20 04:15:23;;;;;;;6.53;1.75;;;;;;;14.82;89.74;100898.03;5035872;28;20036;-71
2022/08/20 04:17:49;;;;;;;7.78;1.60;;;;;;;14.81;89.73;100897.22;5019119;28;20107;-71
2022/08/20 04:20:21;;;;;;;6.32;2.10;;;;;;;14.79;89.93;100902.28;5023780;28;20030;-71
2022/08/20 04:22:47;;;;;;;6.47;1.75;;;;;;;14.77;89.78;100900.97;4991463;28;20025;-71
2022/08/20 04:25:12;;;;;;;8.05;1.67;;;;;;;14.74;90.09;100908.84;4990489;28;20117;-71
2022/08/20 04:27:38;;;;;;;5.90;1.30;;;;;;;14.74;90.49;100913.59;5039116;28;20497;-70
2022/08/20 04:30:06;;;;;;;5.68;1.98;;;;;;;14.73;90.59;100918.34;5006165;28;20044;-70
2022/08/20 04:32:31;;;;;;;6.38;1.70;;;;;;;14.71;90.46;100914.22;4988202;28;20535;-70
2022/08/20 04:34:57;;;;;;;7.18;1.60;;;;;;;14.69;90.20;100908.94;4989968;28;20028;-70
2022/08/20 04:37:23;;;;;;;8.35;1.80;;;;;;;14.69;90.39;100919.31;5005946;28;20025;-71
2022/08/20 04:40:52;;;;;;;7.93;2.20;;;;;;;14.66;90.57;100917.94;5005965;28;20024;-70
2022/08/20 04:42:35;;;;;;;5.53;1.50;;;;;;;14.66;90.37;100926.34;5027956;28;20389;-70
2022/08/20 04:45:01;;;;;;;8.85;1.63;;;;;;;14.66;90.58;100925.53;5022557;28;20039;-70
2022/08/20 04:47:27;;;;;;;8.75;1.85;;;;;;;14.64;90.32;100916.59;5056300;28;20397;-70
2022/08/20 04:49:52;;;;;;;5.85;1.88;;;;;;;14.63;90.18;100914.97;5005608;28;20508;-70
2022/08/20 04:52:17;;;;;;;5.15;1.55;;;;;;;14.63;90.21;100917.75;5022211;28;20036;-70
2022/08/20 04:54:43;;;;;;;5.50;1.85;;;;;;;14.61;90.31;100911.66;4989909;28;20036;-70
2022/08/20 04:57:08;;;;;;;9.30;1.83;;;;;;;14.63;90.55;100912.16;5056355;28;20550;-70
2022/08/20 04:59:34;;;;;;;5.95;1.58;;;;;;;14.62;90.24;100913.28;5021852;28;20535;-71
2022/08/20 05:02:01;;;;;;;4.55;1.40;;;;;;;14.59;90.30;100914.72;5060072;28;20035;-71
2022/08/20 05:04:26;;;;;;;8.55;1.60;;;;;;;14.59;90.54;100923.13;5028029;28;20029;-70
2022/08/20 05:06:52;;;;;;;6.97;1.48;;;;;;;14.59;90.40;100913.91;5055044;28;20083;-70
2022/08/20 05:09:17;;;;;;;6.32;1.63;;;;;;;14.56;90.48;100914.53;5022123;28;20029;-70
2022/08/20 05:11:43;;;;;;;7.03;1.63;;;;;;;14.55;90.37;100921.28;5021939;28;20029;-70
2022/08/20 05:14:08;;;;;;;8.73;2.00;;;;;;;14.53;90.22;100928.00;5038425;28;20029;-70
2022/08/20 05:16:38;;;;;;;6.85;2.00;;;;;;;14.52;89.85;100915.16;5055769;28;20029;-70
2022/08/20 05:19:05;;;;;;;7.93;1.63;;;;;;;14.52;90.06;100919.94;5056220;28;20032;-70
2022/08/20 05:21:30;;;;;;;5.32;1.45;;;;;;;14.51;90.06;100923.81;5005220;28;20059;-71
2022/08/20 05:23:56;;;;;;;7.03;1.65;;;;;;;14.52;90.12;100926.34;5022109;28;20024;-71
2022/08/20 05:26:25;;;;;;;5.55;1.63;;;;;;;14.51;89.91;100930.25;5038453;28;20020;-71
2022/08/20 05:28:51;;;;;;;6.53;1.85;;;;;;;14.51;89.95;100926.59;5030732;28;20033;-70
2022/08/20 05:31:16;;;;;;;6.70;1.95;;;;;;;14.53;89.83;100921.56;5021245;28;20033;-71
2022/08/20 05:33:42;;;;;;;4.82;1.55;;;;;;;14.53;90.21;100921.56;5005167;28;20032;-71
2022/08/20 05:36:07;;;;;;;8.90;1.30;;;;;;;14.53;89.94;100928.00;5018279;28;20026;-70
2022/08/20 05:38:33;;;;;;;8.00;1.33;;;;;;;14.55;89.88;100929.66;5020382;28;20112;-71
2022/08/20 05:40:59;;;;;;;7.75;1.60;;;;;;;14.58;90.08;100934.63;5005221;28;20452;-70
2022/08/20 05:43:25;;;;;;;6.45;1.52;;;;;;;14.60;89.93;100935.13;5002606;28;20025;-71
2022/08/20 05:45:51;;;;;;;4.90;1.50;;;;;;;14.62;90.15;100946.84;5005199;28;20037;-71
2022/08/20 05:48:18;;;;;;;7.40;1.58;;;;;;;14.64;89.81;100936.19;5021859;28;20033;-71
2022/08/20 05:50:45;;;;;;;6.88;1.75;;;;;;;14.72;90.19;100941.03;5005490;28;20503;-71
2022/08/20 05:53:10;;;;;;;5.53;1.35;;;;;;;14.71;90.24;100948.59;5005605;28;20025;-71
2022/08/20 05:55:36;;;;;;;7.20;1.48;;;;;;;14.72;89.82;100957.81;5021632;28;20079;-71
2022/08/20 05:58:04;;;;;;;4.95;1.30;;;;;;;14.73;90.10;100949.09;5021427;28;20033;-70
2022/08/20 06:00:29;;;;;;;3.22;1.40;;;;;;;14.78;90.00;100948.16;5021070;28;20485;-70
2022/08/20 06:05:39;;;;;;;5.25;1.02;;;;;;;14.86;89.56;100957.81;5023696;28;20028;-70
2022/08/20 06:08:05;;;;;;;4.38;1.20;;;;;;;14.88;89.51;100950.75;5004926;28;20021;-70
2022/08/20 06:10:31;;;;;;;5.72;1.20;;;;;;;14.92;89.91;100960.16;5005194;28;20037;-70
2022/08/20 06:12:56;;;;;;;7.78;1.50;;;;;;;14.97;89.79;100956.44;5021533;28;20025;-70
2022/08/20 06:15:22;;;;;;;6.38;1.73;;;;;;;15.01;89.88;100962.22;5037458;28;20029;-71
2022/08/20 06:17:47;;;;;;;8.57;1.70;;;;;;;15.03;89.66;100957.16;5021265;28;20119;-71
2022/08/20 06:20:13;;;;;;;5.45;1.80;;;;;;;15.08;89.79;100963.47;5004751;28;20025;-72
2022/08/20 06:22:39;;;;;;;6.65;1.75;;;;;;;15.11;89.93;100957.25;5021244;28;20595;-70
2022/08/20 06:25:05;;;;;;;6.43;1.80;;;;;;;15.17;89.74;100964.38;4988475;28;20032;-71
2022/08/20 06:27:30;;;;;;;5.68;1.60;;;;;;;15.21;89.73;100967.41;5021063;28;20040;-71
2022/08/20 06:29:56;;;;;;;11.05;1.73;;;;;;;15.28;89.88;100962.19;5012763;28;20021;-71
2022/08/20 06:32:23;;;;;;;5.47;1.45;;;;;;;15.31;89.80;100953.16;4988348;28;20033;-71
2022/08/20 06:34:50;;;;;;;7.00;1.38;;;;;;;15.33;89.92;100955.66;5002089;28;20025;-71
2022/08/20 06:37:25;;;;;;;5.30;1.35;;;;;;;15.41;89.96;100952.09;5021385;28;20517;-71
2022/08/20 06:39:50;;;;;;;6.68;1.30;;;;;;;15.47;90.02;100950.84;5056031;28;20096;-71
2022/08/20 06:42:17;;;;;;;7.55;1.85;;;;;;;15.50;90.47;100950.19;5024737;28;20096;-71
2022/08/20 06:44:42;;;;;;;4.97;1.38;;;;;;;15.58;89.82;100949.44;5041173;28;20374;-71
2022/08/20 06:47:08;;;;;;;3.70;1.50;;;;;;;15.66;89.66;100956.25;5008281;28;20032;-71
2022/08/20 06:49:35;;;;;;;6.32;1.85;;;;;;;15.74;89.37;100954.69;5058778;28;20098;-71
2022/08/20 06:52:02;;;;;;;4.13;1.42;;;;;;;15.82;89.41;100960.38;5024408;28;20466;-71
2022/08/20 06:54:28;;;;;;;4.85;1.35;;;;;;;15.92;89.21;100956.47;5007496;28;20076;-71
2022/08/20 06:56:53;;;;;;;6.82;1.58;;;;;;;16.05;89.24;100960.34;5008047;28;20420;-71
2022/08/20 06:59:19;;;;;;;7.63;2.20;;;;;;;16.15;91.18;100959.25;5024197;28;20036;-71
2022/08/20 07:01:45;;;;;;;7.68;1.52;;;;;;;16.29;89.37;100958.00;5058510;28;20040;-71
2022/08/20 07:04:10;;;;;;;7.25;1.67;;;;;;;16.44;88.80;100955.94;5024311;28;20029;-71
2022/08/20 07:06:36;;;;;;;5.63;1.40;;;;;;;16.57;89.00;100957.78;4990841;28;20025;-71
2022/08/20 07:09:01;;;;;;;4.47;1.40;;;;;;;16.74;88.47;100957.03;5007572;28;20481;-71
2022/08/20 07:11:27;;;;;;;9.43;1.65;;;;;;;16.89;88.62;100951.03;5007641;28;20028;-71
2022/08/20 07:13:52;;;;;;;8.63;2.00;;;;;;;17.07;88.55;100953.84;5004783;28;20056;-71
2022/08/20 07:16:18;;;;;;;7.10;1.90;;;;;;;17.26;90.25;100959.19;5037291;28;20044;-71
2022/08/20 07:18:43;;;;;;;15.80;2.83;;;;;;;17.41;89.47;100955.88;5022907;28;20035;-71
2022/08/20 07:21:10;;;;;;;13.30;2.22;;;;;;;17.57;87.96;100959.84;5057990;28;20068;-71
2022/08/20 07:23:36;;;;;;;15.50;2.45;;;;;;;17.76;88.65;100962.31;5028010;28;20027;-71
2022/08/20 07:26:02;;;;;;;11.55;2.65;;;;;;;17.94;86.65;100962.31;4983902;28;20057;-71
2022/08/20 07:28:28;;;;;;;8.25;1.80;;;;;;;18.15;84.33;100965.28;5040351;28;20025;-71
2022/08/20 07:33:38;;;;;;;12.50;2.13;;;;;;;18.59;82.37;100960.34;5042975;28;20108;-71
2022/08/20 07:36:04;;;;;;;15.32;2.22;;;;;;;18.74;84.42;100957.78;5039934;28;20053;-71
2022/08/20 07:38:30;;;;;;;14.73;2.40;;;;;;;18.91;82.33;100962.50;5023703;28;20040;-71
2022/08/20 07:41:03;;;;;;;11.48;2.15;;;;;;;19.17;82.32;100970.00;5057886;28;20099;-71
2022/08/20 07:43:29;;;;;;;10.80;1.90;;;;;;;19.41;81.14;100958.84;5036811;28;20071;-71
2022/08/20 07:45:56;;;;;;;11.75;2.30;;;;;;;19.61;79.04;100959.19;5039606;28;20514;-71
2022/08/20 07:48:27;;;;;;;14.10;2.22;;;;;;;19.84;78.81;100960.53;5006368;28;20029;-71
2022/08/20 07:50:57;;;;;;;11.75;2.28;;;;;;;20.04;78.08;100964.47;5020473;28;20031;-71
2022/08/20 07:53:23;;;;;;;12.57;2.00;;;;;;;20.21;78.43;100969.09;5022927;28;20025;-71
2022/08/20 07:55:48;;;;;;;12.93;2.88;;;;;;;20.42;76.28;100965.38;5007103;28;20029;-71
2022/08/20 07:58:16;;;;;;;15.10;2.88;;;;;;;20.57;75.05;100975.22;5039715;28;20036;-71
2022/08/20 08:00:41;;;;;;;14.55;2.90;;;;;;;20.71;74.20;100962.41;4998211;28;20039;-71
2022/08/20 08:03:08;;;;;;;18.65;2.72;;;;;;;20.88;73.76;100969.00;5006873;28;20028;-71
2022/08/20 08:05:34;;;;;;;12.68;2.40;;;;;;;21.03;72.61;100973.91;5039603;28;20069;-71
2022/08/20 08:08:00;;;;;;;12.00;2.47;;;;;;;21.23;72.01;100969.31;5006883;28;20068;-71
2022/08/20 08:10:26;;;;;;;13.05;2.10;;;;;;;21.39;70.64;100966.59;5003710;28;20417;-71
2022/08/20 08:12:54;;;;;;;12.13;2.13;;;;;;;21.58;69.25;100971.63;5020931;28;20029;-71
2022/08/20 08:15:22;;;;;;;14.93;2.65;;;;;;;21.69;69.05;100967.09;5057267;28;20032;-68
2022/08/20 08:17:48;;;;;;;16.70;2.70;;;;;;;21.82;69.52;100968.72;5022687;28;20039;-68
2022/08/20 08:20:13;;;;;;;18.02;2.80;;;;;;;21.92;68.66;100961.69;5006234;28;20104;-72
2022/08/20 08:22:41;;;;;;;11.23;2.00;;;;;;;22.12;67.58;100959.00;5022705;28;20025;-71
2022/08/20 08:25:10;;;;;;;8.73;1.98;;;;;;;22.26;66.52;100962.28;5018036;28;20045;-71
2022/08/20 08:27:36;;;;;;;14.65;2.65;;;;;;;22.36;66.86;100956.06;5039156;28;20029;-71
2022/08/20 08:30:02;;;;;;;12.23;2.25;;;;;;;22.51;66.63;100966.59;5022516;28;20033;-71
2022/08/20 08:32:27;;;;;;;10.68;2.17;;;;;;;22.63;65.52;100974.19;5029041;28;20110;-72
2022/08/20 08:34:53;;;;;;;11.13;1.92;;;;;;;22.73;65.07;100969.97;5038936;28;20025;-71
2022/08/20 08:37:18;;;;;;;11.43;2.13;;;;;;;22.88;64.02;100974.81;5056806;28;20029;-71
2022/08/20 08:39:44;;;;;;;9.35;2.00;;;;;;;22.95;64.33;100976.97;5056266;28;20477;-71
2022/08/20 08:42:36;;;;;;;11.60;2.20;;;;;;;23.15;62.92;100977.88;5056680;28;20033;-71
2022/08/20 08:45:03;;;;;;;10.40;2.13;;;;;;;23.32;62.44;100977.50;5056478;28;20036;-71
2022/08/20 08:47:33;;;;;;;10.57;2.20;;;;;;;23.47;61.86;100983.50;5039071;28;20037;-72
2022/08/20 08:49:59;;;;;;;13.23;2.35;;;;;;;23.56;62.09;100975.59;5056662;28;20029;-73
2022/08/20 08:52:30;;;;;;;17.02;2.50;;;;;;;23.71;62.20;100973.91;5005856;28;20033;-73
2022/08/20 08:54:58;;;;;;;11.98;2.30;;;;;;;23.83;61.17;100980.28;5033258;28;20028;-70
2022/08/20 08:57:24;;;;;;;15.25;1.95;;;;;;;23.92;61.89;100970.72;5013766;28;20037;-71
2022/08/20 08:59:58;;;;;;;15.20;2.65;;;;;;;23.97;61.31;100967.56;5027857;28;20028;-71
2022/08/20 09:02:24;;;;;;;14.73;2.45;;;;;;;24.15;61.56;100963.06;5038212;28;20481;-71
2022/08/20 09:04:52;;;;;;;17.13;2.75;;;;;;;24.35;61.19;100972.38;5022091;28;20048;-71
2022/08/20 09:07:19;;;;;;;9.38;2.25;;;;;;;24.52;59.10;100956.91;5022688;28;20055;-71
2022/08/20 09:09:45;;;;;;;14.52;2.78;;;;;;;24.62;58.45;100959.09;4989653;28;20096;-71
2022/08/20 09:12:19;;;;;;;8.98;2.03;;;;;;;24.70;58.09;100958.00;4989551;28;20420;-71
2022/08/20 09:14:47;;;;;;;10.48;2.45;;;;;;;24.82;56.85;100953.31;5019956;28;20033;-71
2022/08/20 09:17:13;;;;;;;11.38;2.22;;;;;;;24.89;54.12;100959.13;5022897;28;20508;-71
2022/08/20 09:19:38;;;;;;;6.47;1.60;;;;;;;25.08;55.28;100961.88;5021959;28;20068;-71
2022/08/20 09:22:15;;;;;;;12.02;2.08;;;;;;;25.15;54.22;100962.00;5038107;28;20048;-71
2022/08/20 09:24:41;;;;;;;9.70;2.33;;;;;;;25.20;53.51;100958.03;5037237;28;20041;-71
2022/08/20 09:27:06;;;;;;;11.80;2.63;;;;;;;25.16;52.98;100960.00;5021855;28;20060;-71
2022/08/20 09:29:32;;;;;;;14.73;1.85;;;;;;;25.13;51.47;100963.56;5005312;28;20041;-71
2022/08/20 09:32:07;;;;;;;9.80;1.88;;;;;;;25.18;52.01;100964.09;5032197;28;20036;-71
2022/08/20 09:34:40;;;;;;;9.18;2.13;;;;;;;25.16;51.94;100963.66;5055640;28;20025;-71
2022/08/20 09:37:07;;;;;;;12.52;2.47;;;;;;;25.30;51.98;100953.72;5022319;28;20049;-71
2022/08/20 09:39:32;;;;;;;10.52;1.90;;;;;;;25.33;51.67;100961.47;5037623;28;20027;-71
2022/08/20 09:42:15;;;;;;;10.38;2.33;;;;;;;25.44;52.03;100964.47;5021634;28;20084;-71
2022/08/20 09:44:41;;;;;;;12.05;3.53;;;;;;;25.48;51.82;100966.13;5051482;28;20037;-71
2022/08/20 09:47:06;;;;;;;10.60;3.08;;;;;;;25.62;50.32;100974.03;5019595;28;20025;-71
2022/08/20 09:49:32;;;;;;;12.68;3.10;;;;;;;25.76;50.49;100971.38;5005342;28;20030;-71
2022/08/20 09:51:58;;;;;;;12.27;3.20;;;;;;;25.91;49.87;100966.72;5052816;28;20025;-71
2022/08/20 09:54:28;;;;;;;10.35;2.88;;;;;;;26.08;49.80;100966.13;5021451;28;20025;-71
2022/08/20 09:56:57;;;;;;;12.40;3.10;;;;;;;26.15;48.31;100964.56;5040863;28;20060;-71
2022/08/20 09:59:22;;;;;;;8.65;2.35;;;;;;;26.34;48.60;100961.50;5055621;28;20021;-71
2022/08/20 10:01:48;;;;;;;10.40;2.90;;;;;;;26.47;48.23;100964.91;5040168;28;20036;-71
2022/08/20 10:04:13;;;;;;;9.70;3.10;;;;;;;26.64;47.51;100963.47;5062455;28;20029;-73
2022/08/20 10:06:39;;;;;;;10.75;3.22;;;;;;;26.74;46.73;100963.56;5038007;28;20028;-74
2022/08/20 10:09:05;;;;;;;10.13;2.42;;;;;;;26.71;46.07;100952.91;5017896;28;20069;-74
2022/08/20 10:11:30;;;;;;;12.35;2.67;;;;;;;26.77;45.22;100955.41;5003552;28;20032;-74
2022/08/20 10:13:56;;;;;;;9.20;2.22;;;;;;;26.74;44.78;100952.16;5021505;28;20033;-74
2022/08/20 10:16:21;;;;;;;6.65;1.98;;;;;;;26.70;45.44;100950.47;5007950;28;20488;-74
2022/08/20 10:18:49;;;;;;;11.70;2.25;;;;;;;26.56;45.43;100956.06;4992370;28;20036;-74
2022/08/20 10:21:15;;;;;;;9.55;1.85;;;;;;;26.42;44.76;100946.13;5009241;28;20111;-74
2022/08/20 10:23:41;;;;;;;10.15;2.08;;;;;;;26.25;44.21;100947.59;5022895;28;20460;-74
2022/08/20 10:26:07;;;;;;;8.30;1.77;;;;;;;26.00;43.80;100950.16;5032764;28;20032;-73
2022/08/20 10:28:33;;;;;;;9.70;2.05;;;;;;;25.88;43.87;100933.34;5025224;28;20082;-74
2022/08/20 10:30:58;;;;;;;6.88;1.70;;;;;;;25.86;44.75;100941.47;5003780;28;20033;-74
2022/08/20 10:33:24;;;;;;;7.95;1.45;;;;;;;25.90;45.66;100941.50;5024655;28;20384;-74
2022/08/20 10:35:49;;;;;;;13.75;8.07;;;;;;;25.84;45.54;100943.88;5008572;28;20090;-73
2022/08/20 10:38:15;;;;;;;8.88;3.75;;;;;;;25.92;46.29;100942.75;5006644;28;20036;-74
2022/08/20 10:40:40;;;;;;;16.95;9.35;;;;;;;25.97;45.82;100936.72;5002911;28;20036;-74
2022/08/20 10:43:06;;;;;;;9.60;5.00;;;;;;;25.99;45.49;100940.00;5024752;28;20434;-74
2022/08/20 10:45:31;;;;;;;12.32;5.50;;;;;;;26.18;45.94;100943.84;4991650;28;20029;-74
2022/08/20 10:48:00;;;;;;;21.27;12.02;;;;;;;26.31;45.52;100939.50;5019275;28;20033;-74
2022/08/20 10:50:25;;;;;;;12.45;4.38;;;;;;;26.33;43.32;100934.25;5024491;28;20029;-74
2022/08/20 10:52:51;;;;;;;10.02;3.15;;;;;;;26.46;43.20;100941.28;5040906;28;20044;-74
2022/08/20 10:55:17;;;;;;;10.23;3.30;;;;;;;26.69;43.55;100931.72;5024284;28;20039;-74
2022/08/20 10:57:43;;;;;;;8.05;2.70;;;;;;;26.85;43.31;100929.41;5024562;28;20044;-74
2022/08/20 11:00:09;;;;;;;11.77;2.85;;;;;;;26.93;43.90;100931.13;4991280;28;20028;-74
2022/08/20 11:02:35;;;;;;;11.65;5.07;;;;;;;27.13;43.89;100928.00;5008096;28;20021;-74
2022/08/20 11:05:00;;;;;;;8.68;2.63;;;;;;;27.29;42.64;100917.13;5024101;28;20507;-74
2022/08/20 11:07:28;;;;;;;9.55;3.35;;;;;;;27.49;43.24;100920.47;5040764;28;20100;-74
2022/08/20 11:09:54;;;;;;;9.48;3.35;;;;;;;27.63;43.64;100911.16;5024150;28;20397;-74
2022/08/20 11:12:19;;;;;;;8.40;3.33;;;;;;;27.64;43.00;100915.69;5023076;28;20036;-74
2022/08/20 11:14:45;;;;;;;9.13;2.40;;;;;;;27.66;41.54;100920.97;5024171;28;20509;-74
2022/08/20 11:17:11;;;;;;;8.77;1.70;;;;;;;27.65;41.19;100919.34;5004019;28;20045;-74
2022/08/20 11:19:42;;;;;;;12.07;2.47;;;;;;;27.77;41.23;100922.63;5003108;28;20025;-73
2022/08/20 11:22:08;;;;;;;9.27;2.20;;;;;;;27.77;39.92;100918.97;5020501;28;20433;-74
2022/08/20 11:24:34;;;;;;;10.70;1.65;;;;;;;27.86;40.19;100910.91;5004255;28;20026;-74
2022/08/20 11:27:00;;;;;;;10.02;1.90;;;;;;;27.89;39.87;100912.94;5021220;28;20037;-74
2022/08/20 11:29:25;;;;;;;8.48;1.85;;;;;;;28.00;39.79;100912.94;5020195;28;20029;-74